Route Details

Aircraft Information
Group: European Fleet
Types: A30F, A31F, B738
Route Data
Distance: 1599nm
Duration: 4h 00m
Origin METAR: LPPD 171130Z 06009KT 010V100 9999 FEW025 BKN045 23/13 Q1029
Dest. METAR: EDDK 171120Z AUTO 26005KT 200V330 CAVOK 25/15 Q1011 NOSIG
Freight Data
(for Aug 18, 2022)
Load Factor:
89%
Manifested Cargo: 89,785lbs
Financial History
Total Freight: 106,938lbs
Average Load: 0lbs/flt
Fuel Used: 144,143lbs
Avg. Fuel Used: 0lbs/flt
Fuel Expense: $87,663
Avg. Fuel Expense: $0
Avg. Fuel Cost: $0/lbs
Total Gross Income: $244,043
Pilot Pay: $1,026
Total Expenses: $54,130
Total Revenue: $97,028
Average Revenue: $0

Capitol Logistics 564




LPPD
João Paulo II Airport
Ponta Delgada, PT
EDDK
Cologne Bonn Airport
Cologne, DE